sensor_id;sensor_type;location;lat;lon;timestamp;pressure;altitude;pressure_sealevel;temperature;humidity
24892;BME280;12954;50.688;10.908;2023-02-12T00:01:31;97420.16;;;4.67;69.01
24892;BME280;12954;50.688;10.908;2023-02-12T00:03:59;97419.16;;;4.68;69.14
24892;BME280;12954;50.688;10.908;2023-02-12T00:06:29;97386.72;;;4.43;69.23
24892;BME280;12954;50.688;10.908;2023-02-12T00:08:58;97404.31;;;4.59;68.97
24892;BME280;12954;50.688;10.908;2023-02-12T00:11:27;97422.00;;;4.66;69.24
24892;BME280;12954;50.688;10.908;2023-02-12T00:13:56;97424.47;;;4.61;69.31
24892;BME280;12954;50.688;10.908;2023-02-12T00:16:27;97428.97;;;4.61;69.41
24892;BME280;12954;50.688;10.908;2023-02-12T00:18:56;97423.84;;;4.59;69.63
24892;BME280;12954;50.688;10.908;2023-02-12T00:21:25;97407.13;;;4.51;69.82
24892;BME280;12954;50.688;10.908;2023-02-12T00:23:55;97422.00;;;4.60;69.55
24892;BME280;12954;50.688;10.908;2023-02-12T00:26:24;97410.25;;;4.61;69.80
24892;BME280;12954;50.688;10.908;2023-02-12T00:28:53;97412.09;;;4.60;69.79
24892;BME280;12954;50.688;10.908;2023-02-12T00:31:23;97413.59;;;4.63;69.40
24892;BME280;12954;50.688;10.908;2023-02-12T00:33:52;97417.28;;;4.62;69.62
24892;BME280;12954;50.688;10.908;2023-02-12T00:36:22;97423.63;;;4.61;69.67
24892;BME280;12954;50.688;10.908;2023-02-12T00:38:52;97415.00;;;4.59;69.64
24892;BME280;12954;50.688;10.908;2023-02-12T00:41:22;97413.72;;;4.55;69.48
24892;BME280;12954;50.688;10.908;2023-02-12T00:43:51;97420.97;;;4.61;69.67
24892;BME280;12954;50.688;10.908;2023-02-12T00:46:20;97395.19;;;4.47;69.62
24892;BME280;12954;50.688;10.908;2023-02-12T00:48:48;97394.34;;;4.39;69.94
24892;BME280;12954;50.688;10.908;2023-02-12T00:51:17;97412.50;;;4.51;70.21
24892;BME280;12954;50.688;10.908;2023-02-12T00:53:45;97418.66;;;4.51;70.12
24892;BME280;12954;50.688;10.908;2023-02-12T00:56:14;97420.94;;;4.54;69.75
24892;BME280;12954;50.688;10.908;2023-02-12T00:58:43;97417.84;;;4.57;70.05
24892;BME280;12954;50.688;10.908;2023-02-12T01:01:12;97423.41;;;4.56;69.95
24892;BME280;12954;50.688;10.908;2023-02-12T01:03:40;97426.06;;;4.56;70.20
24892;BME280;12954;50.688;10.908;2023-02-12T01:06:09;97427.31;;;4.53;70.07
24892;BME280;12954;50.688;10.908;2023-02-12T01:08:37;97420.72;;;4.56;70.02
24892;BME280;12954;50.688;10.908;2023-02-12T01:11:06;97374.69;;;4.26;69.85
24892;BME280;12954;50.688;10.908;2023-02-12T01:13:35;97423.41;;;4.56;70.16
24892;BME280;12954;50.688;10.908;2023-02-12T01:16:07;97424.41;;;4.55;70.17
24892;BME280;12954;50.688;10.908;2023-02-12T01:18:36;97425.19;;;4.49;70.32
24892;BME280;12954;50.688;10.908;2023-02-12T01:21:10;97423.19;;;4.51;70.26
24892;BME280;12954;50.688;10.908;2023-02-12T01:23:39;97416.09;;;4.36;70.76
24892;BME280;12954;50.688;10.908;2023-02-12T01:26:08;97422.28;;;4.43;70.47
24892;BME280;12954;50.688;10.908;2023-02-12T01:28:38;97416.94;;;4.43;70.58
24892;BME280;12954;50.688;10.908;2023-02-12T01:31:10;97390.56;;;4.27;70.31
24892;BME280;12954;50.688;10.908;2023-02-12T01:33:39;97418.84;;;4.50;70.26
24892;BME280;12954;50.688;10.908;2023-02-12T01:36:09;97423.19;;;4.51;70.32
24892;BME280;12954;50.688;10.908;2023-02-12T01:38:38;97408.09;;;4.43;70.47
24892;BME280;12954;50.688;10.908;2023-02-12T01:41:08;97429.75;;;4.55;70.18
24892;BME280;12954;50.688;10.908;2023-02-12T01:43:38;97426.06;;;4.56;70.37
24892;BME280;12954;50.688;10.908;2023-02-12T01:46:11;97420.72;;;4.56;70.03
24892;BME280;12954;50.688;10.908;2023-02-12T01:48:42;97425.25;;;4.55;70.26
24892;BME280;12954;50.688;10.908;2023-02-12T01:51:16;97433.09;;;4.57;70.22
24892;BME280;12954;50.688;10.908;2023-02-12T01:53:50;97426.06;;;4.56;70.33
24892;BME280;12954;50.688;10.908;2023-02-12T01:56:19;97424.41;;;4.55;70.16
24892;BME280;12954;50.688;10.908;2023-02-12T01:58:50;97440.28;;;4.56;70.48
24892;BME280;12954;50.688;10.908;2023-02-12T02:01:24;97422.56;;;4.55;70.53
24892;BME280;12954;50.688;10.908;2023-02-12T02:03:55;97403.38;;;4.38;70.16
24892;BME280;12954;50.688;10.908;2023-02-12T02:06:29;97424.41;;;4.55;70.13
24892;BME280;12954;50.688;10.908;2023-02-12T02:08:59;97396.78;;;4.41;70.23
24892;BME280;12954;50.688;10.908;2023-02-12T02:11:28;97433.88;;;4.57;70.26
24892;BME280;12954;50.688;10.908;2023-02-12T02:14:13;97436.38;;;4.59;70.04
24892;BME280;12954;50.688;10.908;2023-02-12T02:17:17;97427.75;;;4.57;70.26
24892;BME280;12954;50.688;10.908;2023-02-12T02:20:09;97430.03;;;4.60;70.20
24892;BME280;12954;50.688;10.908;2023-02-12T02:22:47;97406.09;;;4.45;70.09
24892;BME280;12954;50.688;10.908;2023-02-12T02:28:31;97426.06;;;4.56;70.26
24892;BME280;12954;50.688;10.908;2023-02-12T02:31:07;97385.97;;;4.21;70.45
24892;BME280;12954;50.688;10.908;2023-02-12T02:33:46;97406.69;;;4.47;70.33
24892;BME280;12954;50.688;10.908;2023-02-12T02:36:24;97419.72;;;4.57;70.34
24892;BME280;12954;50.688;10.908;2023-02-12T02:39:00;97416.41;;;4.27;69.95
24892;BME280;12954;50.688;10.908;2023-02-12T02:41:34;97406.59;;;4.62;69.94
24892;BME280;12954;50.688;10.908;2023-02-12T02:44:09;97396.06;;;4.54;69.93
24892;BME280;12954;50.688;10.908;2023-02-12T02:46:45;97397.47;;;4.50;70.25
24892;BME280;12954;50.688;10.908;2023-02-12T02:49:18;97407.16;;;4.57;70.46
24892;BME280;12954;50.688;10.908;2023-02-12T02:51:53;97418.28;;;4.61;70.06
24892;BME280;12954;50.688;10.908;2023-02-12T02:54:26;97414.38;;;4.57;70.21
24892;BME280;12954;50.688;10.908;2023-02-12T02:57:06;97408.38;;;4.55;70.54
24892;BME280;12954;50.688;10.908;2023-02-12T02:59:39;97408.38;;;4.55;70.40
24892;BME280;12954;50.688;10.908;2023-02-12T03:02:15;97412.50;;;4.57;70.14
24892;BME280;12954;50.688;10.908;2023-02-12T03:04:48;97419.91;;;4.55;70.38
24892;BME280;12954;50.688;10.908;2023-02-12T03:07:20;97417.22;;;4.55;70.53
24892;BME280;12954;50.688;10.908;2023-02-12T03:09:56;97416.22;;;4.56;70.31
24892;BME280;12954;50.688;10.908;2023-02-12T03:12:26;97410.16;;;4.41;70.80
24892;BME280;12954;50.688;10.908;2023-02-12T03:15:00;97367.88;;;4.23;70.31
24892;BME280;12954;50.688;10.908;2023-02-12T03:17:33;97404.69;;;4.56;70.19
24892;BME280;12954;50.688;10.908;2023-02-12T03:20:09;97365.28;;;4.30;70.25
24892;BME280;12954;50.688;10.908;2023-02-12T03:22:42;97402.22;;;4.54;70.40
24892;BME280;12954;50.688;10.908;2023-02-12T03:25:14;97410.03;;;4.56;70.29
24892;BME280;12954;50.688;10.908;2023-02-12T03:27:46;97412.31;;;4.59;70.34
24892;BME280;12954;50.688;10.908;2023-02-12T03:30:17;97408.78;;;4.52;70.44
24892;BME280;12954;50.688;10.908;2023-02-12T03:32:58;97415.63;;;4.61;70.21
24892;BME280;12954;50.688;10.908;2023-02-12T03:35:33;97415.63;;;4.61;70.03
24892;BME280;12954;50.688;10.908;2023-02-12T03:38:10;97418.28;;;4.61;70.05
24892;BME280;12954;50.688;10.908;2023-02-12T03:40:47;97417.84;;;4.57;70.26
24892;BME280;12954;50.688;10.908;2023-02-12T03:43:23;97415.38;;;4.56;70.21
24892;BME280;12954;50.688;10.908;2023-02-12T03:45:55;97414.50;;;4.49;70.06
24892;BME280;12954;50.688;10.908;2023-02-12T03:48:32;97417.84;;;4.57;70.29
24892;BME280;12954;50.688;10.908;2023-02-12T03:51:04;97417.03;;;4.57;70.20
24892;BME280;12954;50.688;10.908;2023-02-12T03:53:38;97425.69;;;4.59;70.34
24892;BME280;12954;50.688;10.908;2023-02-12T03:56:11;97430.63;;;4.62;70.26
24892;BME280;12954;50.688;10.908;2023-02-12T03:58:41;97409.75;;;4.44;70.08
24892;BME280;12954;50.688;10.908;2023-02-12T04:01:11;97435.97;;;4.62;70.31
24892;BME280;12954;50.688;10.908;2023-02-12T04:03:41;97433.31;;;4.62;70.23
24892;BME280;12954;50.688;10.908;2023-02-12T04:06:19;97440.94;;;4.65;69.86
24892;BME280;12954;50.688;10.908;2023-02-12T04:08:48;97428.75;;;4.56;70.08
24892;BME280;12954;50.688;10.908;2023-02-12T04:11:24;97426.06;;;4.56;70.10
24892;BME280;12954;50.688;10.908;2023-02-12T04:14:12;97431.03;;;4.59;70.26
24892;BME280;12954;50.688;10.908;2023-02-12T04:16:44;97423.63;;;4.54;69.96
24892;BME280;12954;50.688;10.908;2023-02-12T04:19:24;97443.00;;;4.63;69.98
24892;BME280;12954;50.688;10.908;2023-02-12T04:22:08;97445.66;;;4.63;70.11
24892;BME280;12954;50.688;10.908;2023-02-12T04:24:45;97451.41;;;4.66;70.15
24892;BME280;12954;50.688;10.908;2023-02-12T04:27:21;97453.69;;;4.69;69.69
24892;BME280;12954;50.688;10.908;2023-02-12T04:29:56;97465.22;;;4.70;69.50
24892;BME280;12954;50.688;10.908;2023-02-12T04:32:32;97456.59;;;4.68;69.74
24892;BME280;12954;50.688;10.908;2023-02-12T04:35:10;97467.28;;;4.68;69.64
24892;BME280;12954;50.688;10.908;2023-02-12T04:37:46;97460.28;;;4.67;69.59
24892;BME280;12954;50.688;10.908;2023-02-12T04:40:18;97464.78;;;4.66;69.92
24892;BME280;12954;50.688;10.908;2023-02-12T04:42:49;97460.91;;;4.69;69.72
24892;BME280;12954;50.688;10.908;2023-02-12T04:45:21;97466.88;;;4.71;69.76
24892;BME280;12954;50.688;10.908;2023-02-12T04:47:51;97462.56;;;4.70;69.63
24892;BME280;12954;50.688;10.908;2023-02-12T04:50:21;97463.81;;;4.74;69.17
24892;BME280;12954;50.688;10.908;2023-02-12T04:52:49;97457.44;;;4.75;69.11
24892;BME280;12954;50.688;10.908;2023-02-12T04:55:17;97452.63;;;4.64;69.04
24892;BME280;12954;50.688;10.908;2023-02-12T04:57:46;97454.06;;;4.60;68.80
24892;BME280;12954;50.688;10.908;2023-02-12T05:00:15;97466.50;;;4.74;68.60
24892;BME280;12954;50.688;10.908;2023-02-12T05:02:44;97470.19;;;4.73;68.72
24892;BME280;12954;50.688;10.908;2023-02-12T05:05:13;97454.88;;;4.60;68.92
24892;BME280;12954;50.688;10.908;2023-02-12T05:07:43;97469.75;;;4.69;68.97
24892;BME280;12954;50.688;10.908;2023-02-12T05:10:11;97413.16;;;4.31;68.74
24892;BME280;12954;50.688;10.908;2023-02-12T05:12:40;97475.09;;;4.69;68.98
24892;BME280;12954;50.688;10.908;2023-02-12T05:15:09;97478.97;;;4.67;69.10
24892;BME280;12954;50.688;10.908;2023-02-12T05:17:37;97464.78;;;4.60;69.06
24892;BME280;12954;50.688;10.908;2023-02-12T05:20:06;97475.06;;;4.63;69.09
24892;BME280;12954;50.688;10.908;2023-02-12T05:22:35;97463.50;;;4.56;69.13
24892;BME280;12954;50.688;10.908;2023-02-12T05:25:05;97469.66;;;4.56;69.02
24892;BME280;12954;50.688;10.908;2023-02-12T05:27:34;97477.53;;;4.64;68.76
24892;BME280;12954;50.688;10.908;2023-02-12T05:30:03;97480.81;;;4.66;68.77
24892;BME280;12954;50.688;10.908;2023-02-12T05:32:32;97477.75;;;4.63;68.65
24892;BME280;12954;50.688;10.908;2023-02-12T05:35:00;97477.75;;;4.63;68.55
24892;BME280;12954;50.688;10.908;2023-02-12T05:37:29;97478.75;;;4.62;68.57
24892;BME280;12954;50.688;10.908;2023-02-12T05:39:57;97479.13;;;4.59;69.14
24892;BME280;12954;50.688;10.908;2023-02-12T05:42:28;97479.75;;;4.61;69.06
24892;BME280;12954;50.688;10.908;2023-02-12T05:44:56;97481.59;;;4.60;69.13
24892;BME280;12954;50.688;10.908;2023-02-12T05:47:24;97480.81;;;4.60;69.15
24892;BME280;12954;50.688;10.908;2023-02-12T05:49:53;97479.75;;;4.54;69.27
24892;BME280;12954;50.688;10.908;2023-02-12T05:52:21;97482.44;;;4.61;69.18
24892;BME280;12954;50.688;10.908;2023-02-12T05:54:50;97487.78;;;4.61;69.53
24892;BME280;12954;50.688;10.908;2023-02-12T05:57:18;97478.38;;;4.65;69.36
24892;BME280;12954;50.688;10.908;2023-02-12T05:59:48;97488.44;;;4.63;69.36
24892;BME280;12954;50.688;10.908;2023-02-12T06:02:16;97453.50;;;4.36;69.33
24892;BME280;12954;50.688;10.908;2023-02-12T06:04:45;97494.59;;;4.63;69.65
24892;BME280;12954;50.688;10.908;2023-02-12T06:07:14;97505.47;;;4.62;69.42
24892;BME280;12954;50.688;10.908;2023-02-12T06:09:43;97506.75;;;4.66;69.33
24892;BME280;12954;50.688;10.908;2023-02-12T06:12:11;97506.50;;;4.61;69.64
24892;BME280;12954;50.688;10.908;2023-02-12T06:14:40;97511.22;;;4.59;69.82
24892;BME280;12954;50.688;10.908;2023-02-12T06:17:11;97506.66;;;4.53;69.86
24892;BME280;12954;50.688;10.908;2023-02-12T06:19:39;97515.97;;;4.63;69.53
24892;BME280;12954;50.688;10.908;2023-02-12T06:22:08;97519.84;;;4.61;69.74
24892;BME280;12954;50.688;10.908;2023-02-12T06:24:36;97522.97;;;4.64;69.60
24892;BME280;12954;50.688;10.908;2023-02-12T06:27:04;97515.78;;;4.65;69.66
24892;BME280;12954;50.688;10.908;2023-02-12T06:29:33;97521.56;;;4.68;69.83
24892;BME280;12954;50.688;10.908;2023-02-12T06:32:01;97520.75;;;4.68;69.72
24892;BME280;12954;50.688;10.908;2023-02-12T06:34:31;97521.97;;;4.65;69.63
24892;BME280;12954;50.688;10.908;2023-02-12T06:37:00;97522.16;;;4.64;69.84
24892;BME280;12954;50.688;10.908;2023-02-12T06:39:28;97526.91;;;4.68;69.65
24892;BME280;12954;50.688;10.908;2023-02-12T06:41:57;97495.47;;;4.42;69.93
24892;BME280;12954;50.688;10.908;2023-02-12T06:44:25;97526.88;;;4.62;70.17
24892;BME280;12954;50.688;10.908;2023-02-12T06:46:53;97538.19;;;4.64;70.00
24892;BME280;12954;50.688;10.908;2023-02-12T06:49:23;97534.88;;;4.62;70.31
24892;BME280;12954;50.688;10.908;2023-02-12T06:51:53;97536.94;;;4.60;70.38
24892;BME280;12954;50.688;10.908;2023-02-12T06:54:21;97544.75;;;4.61;70.26
24892;BME280;12954;50.688;10.908;2023-02-12T06:56:50;97545.59;;;4.62;70.37
24892;BME280;12954;50.688;10.908;2023-02-12T06:59:18;97537.56;;;4.62;70.46
24892;BME280;12954;50.688;10.908;2023-02-12T07:01:47;97545.38;;;4.63;70.63
24892;BME280;12954;50.688;10.908;2023-02-12T07:04:15;97547.88;;;4.65;70.35
24892;BME280;12954;50.688;10.908;2023-02-12T07:06:44;97545.81;;;4.67;70.51
24892;BME280;12954;50.688;10.908;2023-02-12T07:09:14;97552.00;;;4.67;70.36
24892;BME280;12954;50.688;10.908;2023-02-12T07:11:42;97551.81;;;4.69;70.45
24892;BME280;12954;50.688;10.908;2023-02-12T07:14:13;97544.81;;;4.68;70.61
24892;BME280;12954;50.688;10.908;2023-02-12T07:16:42;97555.72;;;4.73;70.31
24892;BME280;12954;50.688;10.908;2023-02-12T07:19:12;97556.13;;;4.70;70.50
24892;BME280;12954;50.688;10.908;2023-02-12T07:21:42;97538.41;;;4.62;70.68
24892;BME280;12954;50.688;10.908;2023-02-12T07:24:12;97549.13;;;4.69;70.65
24892;BME280;12954;50.688;10.908;2023-02-12T07:26:41;97552.44;;;4.71;70.67
24892;BME280;12954;50.688;10.908;2023-02-12T07:29:10;97562.13;;;4.72;70.82
24892;BME280;12954;50.688;10.908;2023-02-12T07:31:40;97557.41;;;4.74;70.55
24892;BME280;12954;50.688;10.908;2023-02-12T07:34:09;97559.03;;;4.75;70.54
24892;BME280;12954;50.688;10.908;2023-02-12T07:36:38;97553.94;;;4.80;70.64
24892;BME280;12954;50.688;10.908;2023-02-12T07:39:10;97557.44;;;4.80;70.69
24892;BME280;12954;50.688;10.908;2023-02-12T07:41:38;97568.94;;;4.81;70.45
24892;BME280;12954;50.688;10.908;2023-02-12T07:44:10;97572.28;;;4.89;70.33
24892;BME280;12954;50.688;10.908;2023-02-12T07:46:40;97546.03;;;4.65;70.45
24892;BME280;12954;50.688;10.908;2023-02-12T07:49:15;97584.66;;;4.90;70.37
24892;BME280;12954;50.688;10.908;2023-02-12T07:51:44;97561.97;;;4.80;70.73
24892;BME280;12954;50.688;10.908;2023-02-12T07:54:13;97579.31;;;4.90;70.38
24892;BME280;12954;50.688;10.908;2023-02-12T07:56:43;97572.91;;;4.85;70.50
24892;BME280;12954;50.688;10.908;2023-02-12T07:59:16;97571.06;;;4.85;70.47
24892;BME280;12954;50.688;10.908;2023-02-12T08:01:46;97576.06;;;4.95;70.68
24892;BME280;12954;50.688;10.908;2023-02-12T08:04:17;97573.41;;;4.95;70.54
24892;BME280;12954;50.688;10.908;2023-02-12T08:06:47;97589.69;;;5.00;70.45
24892;BME280;12954;50.688;10.908;2023-02-12T08:09:18;97565.94;;;4.90;70.45
24892;BME280;12954;50.688;10.908;2023-02-12T08:11:46;97582.28;;;5.02;70.65
24892;BME280;12954;50.688;10.908;2023-02-12T08:14:18;97589.50;;;5.08;70.29
24892;BME280;12954;50.688;10.908;2023-02-12T08:16:47;97592.81;;;5.10;70.64
24892;BME280;12954;50.688;10.908;2023-02-12T08:19:16;97595.50;;;5.10;70.68
24892;BME280;12954;50.688;10.908;2023-02-12T08:21:51;97590.97;;;5.11;70.54
24892;BME280;12954;50.688;10.908;2023-02-12T08:24:20;97603.94;;;5.14;70.36
24892;BME280;12954;50.688;10.908;2023-02-12T08:26:49;97565.22;;;5.03;70.74
24892;BME280;12954;50.688;10.908;2023-02-12T08:29:21;97593.09;;;5.22;70.48
24892;BME280;12954;50.688;10.908;2023-02-12T08:31:54;97602.22;;;5.27;70.65
24892;BME280;12954;50.688;10.908;2023-02-12T08:34:25;97606.34;;;5.30;70.29
24892;BME280;12954;50.688;10.908;2023-02-12T08:36:54;97598.31;;;5.30;70.54
24892;BME280;12954;50.688;10.908;2023-02-12T08:39:25;97587.16;;;5.26;70.61
24892;BME280;12954;50.688;10.908;2023-02-12T08:41:54;97592.34;;;5.34;70.07
24892;BME280;12954;50.688;10.908;2023-02-12T08:44:24;97605.56;;;5.42;70.38
24892;BME280;12954;50.688;10.908;2023-02-12T08:46:53;97602.28;;;5.40;70.12
24892;BME280;12954;50.688;10.908;2023-02-12T08:49:23;97604.75;;;5.42;70.23
24892;BME280;12954;50.688;10.908;2023-02-12T08:51:54;97608.88;;;5.44;70.11
24892;BME280;12954;50.688;10.908;2023-02-12T08:54:24;97581.22;;;5.31;70.24
24892;BME280;12954;50.688;10.908;2023-02-12T08:56:54;97538.69;;;5.08;70.01
24892;BME280;12954;50.688;10.908;2023-02-12T08:59:25;97601.47;;;5.46;70.20
24892;BME280;12954;50.688;10.908;2023-02-12T09:01:53;97606.44;;;5.49;70.27
24892;BME280;12954;50.688;10.908;2023-02-12T09:04:24;97601.53;;;5.53;70.11
24892;BME280;12954;50.688;10.908;2023-02-12T09:06:54;97560.97;;;5.15;70.35
24892;BME280;12954;50.688;10.908;2023-02-12T09:09:22;97586.38;;;5.32;70.64
24892;BME280;12954;50.688;10.908;2023-02-12T09:11:51;97612.00;;;5.48;70.55
24892;BME280;12954;50.688;10.908;2023-02-12T09:14:19;97616.75;;;5.52;70.34
24892;BME280;12954;50.688;10.908;2023-02-12T09:16:52;97611.19;;;5.54;70.42
24892;BME280;12954;50.688;10.908;2023-02-12T09:19:23;97621.72;;;5.55;70.18
24892;BME280;12954;50.688;10.908;2023-02-12T09:21:53;97624.81;;;5.59;69.76
24892;BME280;12954;50.688;10.908;2023-02-12T09:24:23;97628.72;;;5.56;70.20
24892;BME280;12954;50.688;10.908;2023-02-12T09:26:52;97626.06;;;5.63;69.55
24892;BME280;12954;50.688;10.908;2023-02-12T09:29:20;97602.09;;;5.42;69.81
24892;BME280;12954;50.688;10.908;2023-02-12T09:31:48;97625.66;;;5.60;69.50
24892;BME280;12954;50.688;10.908;2023-02-12T09:34:18;97626.28;;;5.62;69.74
24892;BME280;12954;50.688;10.908;2023-02-12T09:36:47;97631.22;;;5.65;69.89
24892;BME280;12954;50.688;10.908;2023-02-12T09:39:15;97625.88;;;5.65;69.73
24892;BME280;12954;50.688;10.908;2023-02-12T09:42:10;97632.06;;;5.65;69.68
24892;BME280;12954;50.688;10.908;2023-02-12T09:44:45;97608.00;;;5.37;70.05
24892;BME280;12954;50.688;10.908;2023-02-12T09:47:22;97625.19;;;5.49;70.16
24892;BME280;12954;50.688;10.908;2023-02-12T09:50:05;97640.09;;;5.72;69.88
24892;BME280;12954;50.688;10.908;2023-02-12T09:52:38;97593.22;;;5.41;70.20
24892;BME280;12954;50.688;10.908;2023-02-12T09:55:12;97650.25;;;5.76;69.55
24892;BME280;12954;50.688;10.908;2023-02-12T09:57:44;97651.47;;;5.74;69.88
24892;BME280;12954;50.688;10.908;2023-02-12T10:00:15;97614.13;;;5.59;70.10
24892;BME280;12954;50.688;10.908;2023-02-12T10:02:45;97644.91;;;5.83;69.76
24892;BME280;12954;50.688;10.908;2023-02-12T10:05:23;97657.28;;;5.84;69.91
24892;BME280;12954;50.688;10.908;2023-02-12T10:08:09;97656.47;;;5.90;69.46
24892;BME280;12954;50.688;10.908;2023-02-12T10:10:49;97648.22;;;5.85;69.58
24892;BME280;12954;50.688;10.908;2023-02-12T10:13:29;97656.47;;;5.90;69.88
24892;BME280;12954;50.688;10.908;2023-02-12T10:16:09;97660.03;;;5.97;69.27
24892;BME280;12954;50.688;10.908;2023-02-12T10:18:54;97651.78;;;5.92;69.40
24892;BME280;12954;50.688;10.908;2023-02-12T10:21:42;97655.25;;;5.92;69.84
24892;BME280;12954;50.688;10.908;2023-02-12T10:24:56;97664.75;;;5.95;69.45
24892;BME280;12954;50.688;10.908;2023-02-12T10:27:37;97659.00;;;5.98;69.69
24892;BME280;12954;50.688;10.908;2023-02-12T10:30:15;97644.78;;;5.97;69.43
24892;BME280;12954;50.688;10.908;2023-02-12T10:32:46;97666.88;;;6.06;69.60
24892;BME280;12954;50.688;10.908;2023-02-12T10:35:17;97657.78;;;6.07;69.33
24892;BME280;12954;50.688;10.908;2023-02-12T10:37:50;97659.03;;;6.11;69.22
24892;BME280;12954;50.688;10.908;2023-02-12T10:40:25;97656.97;;;6.06;69.22
24892;BME280;12954;50.688;10.908;2023-02-12T10:42:56;97637.56;;;5.98;69.13
24892;BME280;12954;50.688;10.908;2023-02-12T10:45:30;97654.97;;;6.15;69.19
24892;BME280;12954;50.688;10.908;2023-02-12T10:48:08;97656.22;;;6.19;68.75
24892;BME280;12954;50.688;10.908;2023-02-12T10:50:43;97659.31;;;6.23;68.91
24892;BME280;12954;50.688;10.908;2023-02-12T10:53:22;97652.31;;;6.28;68.82
24892;BME280;12954;50.688;10.908;2023-02-12T10:56:05;97652.97;;;6.30;68.36
24892;BME280;12954;50.688;10.908;2023-02-12T10:58:36;97617.78;;;5.99;68.82
24892;BME280;12954;50.688;10.908;2023-02-12T11:01:14;97649.06;;;6.33;68.54
24892;BME280;12954;50.688;10.908;2023-02-12T11:03:44;97644.09;;;6.36;68.65
24892;BME280;12954;50.688;10.908;2023-02-12T11:06:15;97646.19;;;6.41;68.46
24892;BME280;12954;50.688;10.908;2023-02-12T11:08:46;97636.88;;;6.37;68.44
24892;BME280;12954;50.688;10.908;2023-02-12T11:11:19;97646.38;;;6.46;68.41
24892;BME280;12954;50.688;10.908;2023-02-12T11:13:53;97644.56;;;6.53;68.27
24892;BME280;12954;50.688;10.908;2023-02-12T11:16:29;97638.56;;;6.57;68.23
24892;BME280;12954;50.688;10.908;2023-02-12T11:19:00;97642.50;;;6.61;68.10
24892;BME280;12954;50.688;10.908;2023-02-12T11:21:31;97632.78;;;6.60;68.15
24892;BME280;12954;50.688;10.908;2023-02-12T11:24:26;97624.94;;;6.52;67.99
24892;BME280;12954;50.688;10.908;2023-02-12T11:27:20;97626.41;;;6.55;68.16
24892;BME280;12954;50.688;10.908;2023-02-12T11:30:14;97627.66;;;6.59;68.08
24892;BME280;12954;50.688;10.908;2023-02-12T11:32:43;97628.25;;;6.61;68.12
24892;BME280;12954;50.688;10.908;2023-02-12T11:35:14;97613.63;;;6.63;67.99
24892;BME280;12954;50.688;10.908;2023-02-12T11:37:45;97612.19;;;6.67;68.07
24892;BME280;12954;50.688;10.908;2023-02-12T11:40:22;97615.50;;;6.76;67.24
24892;BME280;12954;50.688;10.908;2023-02-12T11:42:53;97596.06;;;6.54;67.25
24892;BME280;12954;50.688;10.908;2023-02-12T11:45:27;97608.88;;;6.59;67.55
24892;BME280;12954;50.688;10.908;2023-02-12T11:47:57;97607.22;;;6.58;67.77
24892;BME280;12954;50.688;10.908;2023-02-12T11:50:28;97564.72;;;6.35;67.69
24892;BME280;12954;50.688;10.908;2023-02-12T11:52:59;97607.84;;;6.73;67.42
24892;BME280;12954;50.688;10.908;2023-02-12T11:55:34;97606.00;;;6.67;67.21
24892;BME280;12954;50.688;10.908;2023-02-12T11:58:04;97611.34;;;6.60;67.45
24892;BME280;12954;50.688;10.908;2023-02-12T12:00:45;97604.56;;;6.64;67.36
24892;BME280;12954;50.688;10.908;2023-02-12T12:03:21;97606.00;;;6.67;67.16
24892;BME280;12954;50.688;10.908;2023-02-12T12:05:54;97573.41;;;6.50;67.29
24892;BME280;12954;50.688;10.908;2023-02-12T12:08:26;97608.88;;;6.72;67.01
24892;BME280;12954;50.688;10.908;2023-02-12T12:11:00;97597.97;;;6.74;67.11
24892;BME280;12954;50.688;10.908;2023-02-12T12:13:37;97609.28;;;6.76;66.93
24892;BME280;12954;50.688;10.908;2023-02-12T12:16:10;97608.28;;;6.77;66.51
24892;BME280;12954;50.688;10.908;2023-02-12T12:19:01;97612.38;;;6.66;66.85
24892;BME280;12954;50.688;10.908;2023-02-12T12:21:54;97615.47;;;6.63;66.76
24892;BME280;12954;50.688;10.908;2023-02-12T12:24:30;97611.34;;;6.60;66.67
24892;BME280;12954;50.688;10.908;2023-02-12T12:27:11;97615.47;;;6.69;66.55
24892;BME280;12954;50.688;10.908;2023-02-12T12:30:11;97603.53;;;6.65;66.02
24892;BME280;12954;50.688;10.908;2023-02-12T12:32:44;97601.03;;;6.57;65.97
24892;BME280;12954;50.688;10.908;2023-02-12T12:35:17;97616.09;;;6.58;66.35
24892;BME280;12954;50.688;10.908;2023-02-12T12:37:54;97592.56;;;6.47;66.36
24892;BME280;12954;50.688;10.908;2023-02-12T12:40:43;97617.13;;;6.64;66.49
24892;BME280;12954;50.688;10.908;2023-02-12T12:43:23;97588.03;;;6.48;66.59
24892;BME280;12954;50.688;10.908;2023-02-12T12:46:17;97613.41;;;6.58;66.50
24892;BME280;12954;50.688;10.908;2023-02-12T12:49:03;97608.06;;;6.58;66.43
24892;BME280;12954;50.688;10.908;2023-02-12T12:51:58;97602.47;;;6.53;66.47
24892;BME280;12954;50.688;10.908;2023-02-12T12:54:38;97601.03;;;6.57;66.62
24892;BME280;12954;50.688;10.908;2023-02-12T12:57:20;97595.03;;;6.55;66.62
24892;BME280;12954;50.688;10.908;2023-02-12T13:00:10;97599.59;;;6.61;66.50
24892;BME280;12954;50.688;10.908;2023-02-12T13:06:30;97499.47;;;5.89;66.54
24892;BME280;12954;50.688;10.908;2023-02-12T13:09:14;97593.19;;;6.56;66.75
24892;BME280;12954;50.688;10.908;2023-02-12T13:12:00;97603.53;;;6.59;66.44
24892;BME280;12954;50.688;10.908;2023-02-12T13:14:44;97604.97;;;6.61;66.49
24892;BME280;12954;50.688;10.908;2023-02-12T13:17:22;97604.75;;;6.63;66.59
24892;BME280;12954;50.688;10.908;2023-02-12T13:19:59;97614.66;;;6.62;66.68
24892;BME280;12954;50.688;10.908;2023-02-12T13:22:34;97611.34;;;6.67;66.49
24892;BME280;12954;50.688;10.908;2023-02-12T13:25:17;97605.56;;;6.63;66.55
24892;BME280;12954;50.688;10.908;2023-02-12T13:27:50;97603.09;;;6.62;66.50
24892;BME280;12954;50.688;10.908;2023-02-12T13:30:22;97611.56;;;6.65;66.45
24892;BME280;12954;50.688;10.908;2023-02-12T13:33:02;97585.34;;;6.48;66.39
24892;BME280;12954;50.688;10.908;2023-02-12T13:35:34;97605.97;;;6.60;66.41
24892;BME280;12954;50.688;10.908;2023-02-12T13:38:05;97621.47;;;6.65;66.13